Time;durP1;ratioP1;P1;durP2;ratioP2;P2;SDS_P1;SDS_P2;PMS_P1;PMS_P2;Temp;Humidity;BMP_temperature;BMP_pressure;BME280_temperature;BME280_humidity;BME280_pressure;Samples;Min_cycle;Max_cycle;Signal;HPM_P1;HPM_P2
2023/10/17 00:00:45;;;;;;;;;;;10.80;99.90;;;;;;5080738;28;19912;-84
2023/10/17 00:03:13;;;;;;;;;;;10.80;99.90;;;;;;5108421;27;19916;-85
2023/10/17 00:05:41;;;;;;;;;;;10.60;99.90;;;;;;5082877;28;19913;-82
2023/10/17 00:08:09;;;;;;;;;;;10.90;99.90;;;;;;5108572;27;19919;-87
2023/10/17 00:10:35;;;;;;;;;;;10.60;99.90;;;;;;5075614;28;20290;-85
2023/10/17 00:15:46;;;;;;;;;;;10.70;99.90;;;;;;5084416;28;19955;-89
2023/10/17 00:18:15;;;;;;;;;;;10.70;99.90;;;;;;5078770;28;19919;-82
2023/10/17 00:20:43;;;;;;;;;;;10.70;99.90;;;;;;5079445;28;19916;-82
2023/10/17 00:23:08;;;;;;;;;;;10.70;99.90;;;;;;5086182;28;19916;-82
2023/10/17 00:25:35;;;;;;;;;;;10.90;99.90;;;;;;5089333;28;19908;-84
2023/10/17 00:28:02;;;;;;;;;;;10.60;99.90;;;;;;5091700;28;20299;-87
2023/10/17 00:30:30;;;;;;;;;;;10.70;99.90;;;;;;5091801;28;20010;-82
2023/10/17 00:32:55;;;;;;;;;;;10.70;99.90;;;;;;5083149;28;20010;-83
2023/10/17 00:35:25;;;;;;;;;;;10.70;99.90;;;;;;5091304;28;20019;-83
2023/10/17 00:37:57;;;;;;;;;;;10.70;99.90;;;;;;5091941;28;19912;-82
2023/10/17 00:40:35;;;;;;;;;;;10.80;99.90;;;;;;5089979;28;19922;-82
2023/10/17 00:43:04;;;;;;;;;;;10.80;99.90;;;;;;5097479;28;19912;-83
2023/10/17 00:45:30;;;;;;;;;;;10.90;99.90;;;;;;5089994;28;19918;-82
2023/10/17 00:47:56;;;;;;;;;;;10.80;99.90;;;;;;5110605;28;19916;-82
2023/10/17 00:50:21;;;;;;;;;;;10.80;99.90;;;;;;5075634;28;20010;-82
2023/10/17 00:52:49;;;;;;;;;;;10.80;99.90;;;;;;5091144;28;19920;-85
2023/10/17 00:55:15;;;;;;;;;;;10.80;99.90;;;;;;5088876;28;20384;-82
2023/10/17 00:57:40;;;;;;;;;;;10.80;99.90;;;;;;5085737;28;19921;-84
2023/10/17 01:00:35;;;;;;;;;;;10.60;99.90;;;;;;5072064;28;19995;-82
2023/10/17 01:03:01;;;;;;;;;;;10.80;99.90;;;;;;5072479;28;19908;-86
2023/10/17 01:05:26;;;;;;;;;;;10.80;99.90;;;;;;5070372;28;19912;-86
2023/10/17 01:07:52;;;;;;;;;;;10.80;99.90;;;;;;5088462;28;20428;-81
2023/10/17 01:10:17;;;;;;;;;;;10.80;99.90;;;;;;5106216;27;19913;-88
2023/10/17 01:12:53;;;;;;;;;;;10.80;99.90;;;;;;5089322;28;19943;-85
2023/10/17 01:15:22;;;;;;;;;;;10.80;99.90;;;;;;5089547;28;20360;-82
2023/10/17 01:17:48;;;;;;;;;;;10.80;99.90;;;;;;5090744;28;19908;-81
2023/10/17 01:20:20;;;;;;;;;;;10.80;99.90;;;;;;5090529;28;19919;-83
2023/10/17 01:22:46;;;;;;;;;;;10.80;99.90;;;;;;5081773;28;19931;-82
2023/10/17 01:25:27;;;;;;;;;;;10.80;99.90;;;;;;5070609;28;20379;-84
2023/10/17 01:27:54;;;;;;;;;;;10.80;99.90;;;;;;5070330;28;19912;-82
2023/10/17 01:30:20;;;;;;;;;;;10.80;99.90;;;;;;5069147;28;19916;-82
2023/10/17 01:32:47;;;;;;;;;;;10.80;99.90;;;;;;5068923;28;19920;-82
2023/10/17 01:35:12;;;;;;;;;;;10.80;99.90;;;;;;5070305;28;19913;-81
2023/10/17 01:37:40;;;;;;;;;;;10.70;99.90;;;;;;5070964;28;19909;-83
2023/10/17 01:40:09;;;;;;;;;;;10.70;99.90;;;;;;5069872;28;19943;-82
2023/10/17 01:42:37;;;;;;;;;;;10.70;99.90;;;;;;5086253;28;20291;-89
2023/10/17 01:45:06;;;;;;;;;;;10.60;99.90;;;;;;5090394;28;19935;-81
2023/10/17 01:47:31;;;;;;;;;;;10.70;99.90;;;;;;5087580;28;19924;-86
2023/10/17 01:49:57;;;;;;;;;;;10.70;99.90;;;;;;5089449;28;20003;-88
2023/10/17 01:52:24;;;;;;;;;;;10.70;99.90;;;;;;5080507;28;19920;-87
2023/10/17 01:54:49;;;;;;;;;;;10.70;99.90;;;;;;5088360;28;19966;-81
2023/10/17 01:57:17;;;;;;;;;;;10.60;99.90;;;;;;5088974;28;19916;-81
2023/10/17 01:59:42;;;;;;;;;;;10.60;99.90;;;;;;5089001;28;19912;-87
2023/10/17 02:02:08;;;;;;;;;;;10.60;99.90;;;;;;5090550;28;20391;-82
2023/10/17 02:04:34;;;;;;;;;;;10.60;99.90;;;;;;5089064;28;19919;-83
2023/10/17 02:07:00;;;;;;;;;;;10.60;99.90;;;;;;5078914;28;19912;-84
2023/10/17 02:11:54;;;;;;;;;;;10.50;99.90;;;;;;5084780;28;19928;-82
2023/10/17 02:14:23;;;;;;;;;;;10.60;99.90;;;;;;5075716;28;19909;-87
2023/10/17 02:16:49;;;;;;;;;;;10.60;99.90;;;;;;5069822;28;20046;-81
2023/10/17 02:19:15;;;;;;;;;;;10.50;99.90;;;;;;5069933;28;19909;-81
2023/10/17 02:21:43;;;;;;;;;;;10.60;99.90;;;;;;5102585;27;20019;-85
2023/10/17 02:24:09;;;;;;;;;;;10.60;99.90;;;;;;5078269;28;19935;-82
2023/10/17 02:26:42;;;;;;;;;;;10.60;99.90;;;;;;5089399;28;20279;-82
2023/10/17 02:29:11;;;;;;;;;;;10.60;99.90;;;;;;5090282;28;19932;-83
2023/10/17 02:31:37;;;;;;;;;;;10.60;99.90;;;;;;5073045;28;19921;-81
2023/10/17 02:34:03;;;;;;;;;;;10.60;99.90;;;;;;5078249;28;19971;-82
2023/10/17 02:36:28;;;;;;;;;;;10.50;99.90;;;;;;5089325;28;20402;-82
2023/10/17 02:38:54;;;;;;;;;;;10.50;99.90;;;;;;5089266;28;20463;-81
2023/10/17 02:41:20;;;;;;;;;;;10.60;99.90;;;;;;5088410;28;19908;-82
2023/10/17 02:43:46;;;;;;;;;;;10.50;99.90;;;;;;5088197;28;20352;-82
2023/10/17 02:46:14;;;;;;;;;;;10.50;99.90;;;;;;5090425;28;19912;-83
2023/10/17 02:48:39;;;;;;;;;;;10.60;99.90;;;;;;5076852;28;19920;-86
2023/10/17 02:51:11;;;;;;;;;;;10.60;99.90;;;;;;5089294;28;19981;-82
2023/10/17 02:53:43;;;;;;;;;;;10.50;99.90;;;;;;5093234;28;19923;-83
2023/10/17 02:56:18;;;;;;;;;;;10.60;99.90;;;;;;5078869;28;19908;-84
2023/10/17 02:58:48;;;;;;;;;;;10.60;99.90;;;;;;5085125;28;19919;-84
2023/10/17 03:01:14;;;;;;;;;;;10.50;99.90;;;;;;5093678;28;20432;-83
2023/10/17 03:03:40;;;;;;;;;;;10.60;99.90;;;;;;5075193;28;19913;-82
2023/10/17 03:06:06;;;;;;;;;;;11.00;99.90;;;;;;5073059;28;19908;-81
2023/10/17 03:08:41;;;;;;;;;;;10.70;99.90;;;;;;5076893;28;20034;-87
2023/10/17 03:11:15;;;;;;;;;;;10.60;99.90;;;;;;5091167;28;19916;-82
2023/10/17 03:13:40;;;;;;;;;;;10.70;99.90;;;;;;5084106;28;19916;-82
2023/10/17 03:16:25;;;;;;;;;;;10.60;99.90;;;;;;5086893;28;19912;-81
2023/10/17 03:18:51;;;;;;;;;;;10.90;99.90;;;;;;5085630;28;20327;-82
2023/10/17 03:21:19;;;;;;;;;;;10.70;99.90;;;;;;5089125;28;19912;-81
2023/10/17 03:23:49;;;;;;;;;;;10.70;99.90;;;;;;5085771;28;19955;-82
2023/10/17 03:26:18;;;;;;;;;;;10.70;99.90;;;;;;5075690;28;19913;-82
2023/10/17 03:28:45;;;;;;;;;;;10.70;99.90;;;;;;5089745;28;20361;-83
2023/10/17 03:31:19;;;;;;;;;;;10.70;99.90;;;;;;5090231;28;20351;-82
2023/10/17 03:33:50;;;;;;;;;;;10.70;99.90;;;;;;5084086;28;19916;-82
2023/10/17 03:39:19;;;;;;;;;;;10.80;99.90;;;;;;5081188;28;20012;-81
2023/10/17 03:41:45;;;;;;;;;;;10.70;99.90;;;;;;5123087;27;20485;-81
2023/10/17 03:44:15;;;;;;;;;;;10.70;99.90;;;;;;5089417;28;20010;-83
2023/10/17 03:46:42;;;;;;;;;;;10.80;99.90;;;;;;5089955;28;19919;-82
2023/10/17 03:49:07;;;;;;;;;;;10.80;99.90;;;;;;5072419;28;19999;-83
2023/10/17 03:51:33;;;;;;;;;;;10.80;99.90;;;;;;5083074;28;20050;-86
2023/10/17 03:54:08;;;;;;;;;;;10.80;99.90;;;;;;5089313;28;19951;-83
2023/10/17 03:56:45;;;;;;;;;;;10.80;99.90;;;;;;5097524;28;19989;-82
2023/10/17 04:01:39;;;;;;;;;;;10.80;99.90;;;;;;5081441;28;19915;-84
2023/10/17 04:04:05;;;;;;;;;;;10.80;99.90;;;;;;5091388;28;19912;-85
2023/10/17 04:06:40;;;;;;;;;;;10.80;99.90;;;;;;5079431;28;19920;-88
2023/10/17 04:09:27;;;;;;;;;;;10.90;99.90;;;;;;5091978;28;19908;-87
2023/10/17 04:11:56;;;;;;;;;;;11.00;99.90;;;;;;5092003;28;20031;-83
2023/10/17 04:14:33;;;;;;;;;;;10.80;99.90;;;;;;5091905;28;19912;-82
2023/10/17 04:17:05;;;;;;;;;;;10.80;99.90;;;;;;5089553;28;19916;-84
2023/10/17 04:19:32;;;;;;;;;;;10.80;99.90;;;;;;5089184;28;19912;-82
2023/10/17 04:24:28;;;;;;;;;;;10.60;99.90;;;;;;5091275;28;19919;-86
2023/10/17 04:29:38;;;;;;;;;;;10.80;99.90;;;;;;5085447;28;20369;-87
2023/10/17 04:32:10;;;;;;;;;;;10.80;99.90;;;;;;5070893;28;19920;-87
2023/10/17 04:34:44;;;;;;;;;;;10.80;99.90;;;;;;5089856;28;19919;-83
2023/10/17 04:37:10;;;;;;;;;;;10.80;99.90;;;;;;5091342;28;20390;-83
2023/10/17 04:39:36;;;;;;;;;;;10.80;99.90;;;;;;5080771;28;19908;-82
2023/10/17 04:42:06;;;;;;;;;;;10.80;99.90;;;;;;5081819;28;19919;-83
2023/10/17 04:44:36;;;;;;;;;;;10.80;99.90;;;;;;5082674;28;19912;-83
2023/10/17 04:49:30;;;;;;;;;;;10.90;99.90;;;;;;5088590;28;19912;-83
2023/10/17 04:52:30;;;;;;;;;;;10.70;99.90;;;;;;5091153;28;19916;-83
2023/10/17 04:54:54;;;;;;;;;;;10.80;99.90;;;;;;5088788;28;20350;-85
2023/10/17 04:57:19;;;;;;;;;;;10.70;99.90;;;;;;5088502;28;19912;-83
2023/10/17 05:07:28;;;;;;;;;;;10.80;99.90;;;;;;5091009;28;20307;-82
2023/10/17 06:18:26;;;;;;;;;;;10.70;99.90;;;;;;5090136;28;19935;-84
2023/10/17 06:21:07;;;;;;;;;;;10.70;99.90;;;;;;5089424;28;20426;-88
2023/10/17 06:26:06;;;;;;;;;;;10.80;99.90;;;;;;5089415;28;19913;-85
2023/10/17 06:28:34;;;;;;;;;;;10.80;99.90;;;;;;5088464;28;19916;-87
2023/10/17 06:31:34;;;;;;;;;;;10.70;99.90;;;;;;5089319;28;19912;-90
2023/10/17 06:34:00;;;;;;;;;;;10.80;99.90;;;;;;5089012;28;20383;-90
2023/10/17 06:36:28;;;;;;;;;;;10.80;99.90;;;;;;5088997;28;20380;-85
2023/10/17 06:38:54;;;;;;;;;;;10.80;99.90;;;;;;5093849;28;19908;-82
2023/10/17 06:41:37;;;;;;;;;;;10.80;99.90;;;;;;5089956;28;19931;-89
2023/10/17 06:44:06;;;;;;;;;;;10.90;99.90;;;;;;5090124;28;19935;-88
2023/10/17 06:46:48;;;;;;;;;;;10.90;99.90;;;;;;5096702;28;19915;-86
2023/10/17 06:54:43;;;;;;;;;;;10.90;99.90;;;;;;5110048;28;19933;-87
2023/10/17 06:57:23;;;;;;;;;;;11.00;99.90;;;;;;5082948;28;19947;-82
2023/10/17 06:59:52;;;;;;;;;;;11.00;99.90;;;;;;5068904;28;19917;-84
2023/10/17 07:02:28;;;;;;;;;;;11.00;99.90;;;;;;5116706;28;19913;-86
2023/10/17 07:04:55;;;;;;;;;;;11.00;99.90;;;;;;5086440;28;19912;-84
2023/10/17 07:07:24;;;;;;;;;;;11.00;99.90;;;;;;5087861;28;20296;-87
2023/10/17 07:10:07;;;;;;;;;;;11.00;99.90;;;;;;5088005;28;19916;-88
2023/10/17 07:12:38;;;;;;;;;;;11.00;99.90;;;;;;5076861;28;19920;-89
2023/10/17 07:15:12;;;;;;;;;;;11.10;99.90;;;;;;5088432;28;19912;-85
2023/10/17 07:17:48;;;;;;;;;;;11.10;99.90;;;;;;5087321;28;20367;-83
2023/10/17 07:20:13;;;;;;;;;;;11.10;99.90;;;;;;5082136;28;20454;-84
2023/10/17 07:22:41;;;;;;;;;;;11.20;99.90;;;;;;5109746;28;19919;-89
2023/10/17 07:25:16;;;;;;;;;;;11.10;99.90;;;;;;5091465;28;19962;-85
2023/10/17 07:27:45;;;;;;;;;;;11.20;99.90;;;;;;5088831;28;19912;-85
2023/10/17 07:30:13;;;;;;;;;;;11.20;99.90;;;;;;5089003;28;19912;-88
2023/10/17 07:32:49;;;;;;;;;;;11.20;99.90;;;;;;5090003;28;19916;-84
2023/10/17 07:35:24;;;;;;;;;;;11.20;99.90;;;;;;5091793;28;19908;-89
2023/10/17 07:37:55;;;;;;;;;;;11.30;99.90;;;;;;5092223;28;20443;-85
2023/10/17 07:40:31;;;;;;;;;;;11.40;99.90;;;;;;5092376;28;19991;-89
2023/10/17 07:43:00;;;;;;;;;;;11.40;99.90;;;;;;5092722;28;20033;-84
2023/10/17 07:45:32;;;;;;;;;;;11.40;99.90;;;;;;5092442;28;19908;-84
2023/10/17 07:48:01;;;;;;;;;;;11.40;99.90;;;;;;5092139;28;20380;-86
2023/10/17 07:50:27;;;;;;;;;;;11.40;99.90;;;;;;5091839;28;19977;-85
2023/10/17 07:52:59;;;;;;;;;;;11.40;99.90;;;;;;5092324;28;20336;-85
2023/10/17 07:55:36;;;;;;;;;;;11.50;99.90;;;;;;5093740;28;19914;-92
2023/10/17 07:58:09;;;;;;;;;;;11.60;99.90;;;;;;5092120;28;19912;-86
2023/10/17 08:00:36;;;;;;;;;;;11.70;99.90;;;;;;5091185;28;19955;-86
2023/10/17 08:03:15;;;;;;;;;;;11.70;99.90;;;;;;5082767;28;19924;-83
2023/10/17 08:08:33;;;;;;;;;;;11.80;99.90;;;;;;5072642;28;20017;-83
2023/10/17 08:10:59;;;;;;;;;;;11.80;99.90;;;;;;5080574;28;19999;-83
2023/10/17 08:13:26;;;;;;;;;;;11.80;99.90;;;;;;5096419;28;20015;-84
2023/10/17 08:16:04;;;;;;;;;;;11.90;99.90;;;;;;5071887;28;19912;-84
2023/10/17 08:18:39;;;;;;;;;;;11.90;99.90;;;;;;5071504;28;19908;-83
2023/10/17 08:23:49;;;;;;;;;;;12.10;99.90;;;;;;5082280;28;20391;-83
2023/10/17 08:26:17;;;;;;;;;;;12.10;99.90;;;;;;5100192;27;19912;-84
2023/10/17 08:31:20;;;;;;;;;;;12.30;99.90;;;;;;5071571;28;20341;-86
2023/10/17 08:33:50;;;;;;;;;;;12.30;99.90;;;;;;5069510;28;20330;-87
2023/10/17 08:36:16;;;;;;;;;;;12.40;99.90;;;;;;5085288;28;19912;-83
2023/10/17 08:38:42;;;;;;;;;;;12.40;99.90;;;;;;5090522;28;19940;-82
2023/10/17 08:41:07;;;;;;;;;;;12.40;99.90;;;;;;5089705;28;19909;-82
2023/10/17 08:43:35;;;;;;;;;;;12.50;99.90;;;;;;5090688;28;19912;-85
2023/10/17 08:46:06;;;;;;;;;;;12.50;99.90;;;;;;5089411;28;19938;-88
2023/10/17 08:48:32;;;;;;;;;;;12.50;99.90;;;;;;5091408;28;19961;-90
2023/10/17 08:50:59;;;;;;;;;;;12.70;99.90;;;;;;5090762;28;19912;-86
2023/10/17 08:53:25;;;;;;;;;;;12.70;99.90;;;;;;5090374;28;19912;-84
2023/10/17 08:55:52;;;;;;;;;;;12.80;99.90;;;;;;5089525;28;19908;-87
2023/10/17 08:58:17;;;;;;;;;;;12.80;99.90;;;;;;5089635;28;20371;-85
2023/10/17 09:03:36;;;;;;;;;;;13.00;99.90;;;;;;5070847;28;19908;-90
2023/10/17 09:08:55;;;;;;;;;;;13.10;99.90;;;;;;5088611;28;19908;-86
2023/10/17 09:11:30;;;;;;;;;;;13.20;99.90;;;;;;5090391;28;19920;-83
2023/10/17 09:14:16;;;;;;;;;;;13.30;99.90;;;;;;5089430;28;19908;-90
2023/10/17 09:16:50;;;;;;;;;;;13.30;99.90;;;;;;5088956;28;19912;-84
2023/10/17 09:19:16;;;;;;;;;;;13.40;99.90;;;;;;5090018;28;19908;-83
2023/10/17 09:21:47;;;;;;;;;;;13.40;99.90;;;;;;5088455;28;19943;-83
2023/10/17 09:24:37;;;;;;;;;;;13.50;99.90;;;;;;5089194;28;19916;-85
2023/10/17 09:27:06;;;;;;;;;;;13.60;99.90;;;;;;5090062;28;19934;-82
2023/10/17 09:29:41;;;;;;;;;;;13.80;99.90;;;;;;5090212;28;19940;-81
2023/10/17 09:32:08;;;;;;;;;;;13.80;99.90;;;;;;5081099;28;19967;-88
2023/10/17 09:34:34;;;;;;;;;;;13.90;99.90;;;;;;5088855;28;19912;-87
2023/10/17 09:37:04;;;;;;;;;;;14.00;99.90;;;;;;5092187;28;20330;-85
2023/10/17 09:39:46;;;;;;;;;;;14.00;99.90;;;;;;5109245;28;19934;-85
2023/10/17 09:42:11;;;;;;;;;;;14.00;99.90;;;;;;5098944;28;19939;-85
2023/10/17 09:44:38;;;;;;;;;;;14.00;99.90;;;;;;5095369;28;19916;-84
2023/10/17 09:47:06;;;;;;;;;;;14.00;99.90;;;;;;5105749;28;19961;-84
2023/10/17 09:49:35;;;;;;;;;;;14.00;99.90;;;;;;5110032;28;20260;-85
2023/10/17 09:52:01;;;;;;;;;;;14.00;99.90;;;;;;5110628;28;20014;-83
2023/10/17 09:54:33;;;;;;;;;;;14.10;99.90;;;;;;5110357;28;20411;-84
2023/10/17 09:56:58;;;;;;;;;;;14.00;99.90;;;;;;5094269;28;20410;-82
2023/10/17 09:59:25;;;;;;;;;;;14.10;99.90;;;;;;5102042;28;19912;-81
2023/10/17 10:01:51;;;;;;;;;;;14.20;99.90;;;;;;5110899;28;19908;-86
2023/10/17 10:04:18;;;;;;;;;;;14.20;99.90;;;;;;5104335;28;19993;-93
2023/10/17 10:06:43;;;;;;;;;;;14.30;99.90;;;;;;5089713;28;19959;-91
2023/10/17 10:09:14;;;;;;;;;;;14.30;99.90;;;;;;5102865;28;20000;-83
2023/10/17 10:11:49;;;;;;;;;;;14.40;99.90;;;;;;5087895;28;19919;-83
2023/10/17 10:14:15;;;;;;;;;;;14.50;99.90;;;;;;5088110;28;19914;-84
2023/10/17 10:16:51;;;;;;;;;;;14.60;99.90;;;;;;5087944;28;20002;-83
2023/10/17 10:19:17;;;;;;;;;;;14.60;99.90;;;;;;5088982;28;19941;-84
2023/10/17 10:21:54;;;;;;;;;;;14.60;99.90;;;;;;5088178;28;19919;-82
2023/10/17 10:24:24;;;;;;;;;;;14.70;99.90;;;;;;5088053;28;19911;-86
2023/10/17 10:27:09;;;;;;;;;;;14.70;99.90;;;;;;5088269;28;19919;-88
2023/10/17 10:29:35;;;;;;;;;;;14.70;99.90;;;;;;5073347;28;19912;-87
2023/10/17 10:32:06;;;;;;;;;;;14.80;99.90;;;;;;5079516;28;20368;-83
2023/10/17 10:34:35;;;;;;;;;;;14.90;99.90;;;;;;5089846;28;19912;-83
2023/10/17 10:37:01;;;;;;;;;;;15.10;99.90;;;;;;5089437;28;19912;-83
2023/10/17 10:39:26;;;;;;;;;;;15.10;99.90;;;;;;5088688;28;19977;-81
2023/10/17 10:41:56;;;;;;;;;;;15.20;99.90;;;;;;5073085;28;19963;-85
2023/10/17 10:44:21;;;;;;;;;;;15.30;99.90;;;;;;5081578;28;20345;-82
2023/10/17 10:46:47;;;;;;;;;;;15.40;99.90;;;;;;5088372;28;19912;-81
2023/10/17 10:49:13;;;;;;;;;;;15.40;99.90;;;;;;5089283;28;19915;-83
2023/10/17 10:51:45;;;;;;;;;;;15.50;99.90;;;;;;5088014;28;19923;-86
2023/10/17 10:54:10;;;;;;;;;;;15.60;99.90;;;;;;5089152;28;19954;-83
2023/10/17 10:56:37;;;;;;;;;;;15.60;99.90;;;;;;5087361;28;20329;-82
2023/10/17 10:59:04;;;;;;;;;;;15.70;99.90;;;;;;5089606;28;19911;-89
2023/10/17 11:01:30;;;;;;;;;;;15.70;99.90;;;;;;5089127;28;19995;-87
2023/10/17 11:03:57;;;;;;;;;;;15.80;99.90;;;;;;5088467;28;20003;-86
2023/10/17 11:06:24;;;;;;;;;;;16.00;99.90;;;;;;5087913;28;19935;-85
2023/10/17 11:08:49;;;;;;;;;;;16.00;99.90;;;;;;5090366;28;19912;-87
2023/10/17 11:11:18;;;;;;;;;;;16.10;99.90;;;;;;5087580;28;20034;-83
2023/10/17 11:13:45;;;;;;;;;;;16.20;99.90;;;;;;5073840;28;20288;-83
2023/10/17 11:16:10;;;;;;;;;;;16.20;99.90;;;;;;5072826;28;19909;-82
2023/10/17 11:18:43;;;;;;;;;;;16.30;99.90;;;;;;5087254;28;19908;-81
2023/10/17 11:21:09;;;;;;;;;;;16.40;99.90;;;;;;5091118;28;19920;-84
2023/10/17 11:23:35;;;;;;;;;;;16.40;99.90;;;;;;5091889;28;19908;-83
2023/10/17 11:26:02;;;;;;;;;;;16.50;99.90;;;;;;5085771;28;20339;-82
2023/10/17 11:28:28;;;;;;;;;;;16.50;99.90;;;;;;5084981;28;19916;-87
2023/10/17 11:30:53;;;;;;;;;;;16.60;99.90;;;;;;5091947;28;19912;-85
2023/10/17 11:33:28;;;;;;;;;;;16.60;99.90;;;;;;5092287;28;19924;-84
2023/10/17 11:35:54;;;;;;;;;;;16.70;99.90;;;;;;5091727;28;19912;-84
2023/10/17 11:38:37;;;;;;;;;;;16.80;99.90;;;;;;5089983;28;19919;-87
2023/10/17 11:41:06;;;;;;;;;;;16.90;99.90;;;;;;5092865;28;19912;-86
2023/10/17 11:43:51;;;;;;;;;;;16.90;99.90;;;;;;5090974;28;19999;-84
2023/10/17 11:46:33;;;;;;;;;;;17.00;99.90;;;;;;5090799;28;20388;-83
2023/10/17 11:49:28;;;;;;;;;;;17.10;99.90;;;;;;5089461;28;20672;-87
2023/10/17 11:52:05;;;;;;;;;;;17.20;99.90;;;;;;5091775;28;20007;-83
2023/10/17 11:54:31;;;;;;;;;;;17.20;99.90;;;;;;5091796;28;19912;-83
2023/10/17 11:57:17;;;;;;;;;;;17.30;99.90;;;;;;5090278;28;19915;-82
2023/10/17 12:00:06;;;;;;;;;;;17.30;99.90;;;;;;5071308;28;19919;-83
2023/10/17 12:02:32;;;;;;;;;;;17.40;99.90;;;;;;5078816;28;19919;-83
2023/10/17 12:05:01;;;;;;;;;;;17.50;99.90;;;;;;5102959;28;19916;-85
2023/10/17 12:07:29;;;;;;;;;;;17.60;99.90;;;;;;5091950;28;19916;-84
2023/10/17 12:10:02;;;;;;;;;;;17.60;99.90;;;;;;5090113;28;20002;-86
2023/10/17 12:12:28;;;;;;;;;;;17.60;99.90;;;;;;5091836;28;19963;-83
2023/10/17 12:14:54;;;;;;;;;;;17.70;99.90;;;;;;5091288;28;19916;-84
2023/10/17 12:17:20;;;;;;;;;;;17.80;99.90;;;;;;5091440;28;19908;-85
2023/10/17 12:19:46;;;;;;;;;;;17.90;99.90;;;;;;5090128;28;19909;-84
2023/10/17 12:22:12;;;;;;;;;;;18.00;99.90;;;;;;5090920;28;19919;-85
2023/10/17 12:24:38;;;;;;;;;;;18.00;99.90;;;;;;5090581;28;20003;-84
2023/10/17 12:27:06;;;;;;;;;;;18.00;99.90;;;;;;5090653;28;19939;-83
2023/10/17 12:29:34;;;;;;;;;;;18.20;99.90;;;;;;5091227;28;19908;-86
2023/10/17 12:32:01;;;;;;;;;;;18.20;99.90;;;;;;5091325;28;19923;-83
2023/10/17 12:34:30;;;;;;;;;;;18.30;99.90;;;;;;5091076;28;19915;-83
2023/10/17 12:36:55;;;;;;;;;;;18.30;99.90;;;;;;5091191;28;19908;-82
2023/10/17 12:39:21;;;;;;;;;;;18.40;99.90;;;;;;5091259;28;19916;-83
2023/10/17 12:41:46;;;;;;;;;;;18.50;99.90;;;;;;5090808;28;19915;-84
2023/10/17 12:44:12;;;;;;;;;;;18.50;99.90;;;;;;5091142;28;19909;-89
2023/10/17 12:46:38;;;;;;;;;;;18.60;99.90;;;;;;5092184;28;19908;-83
2023/10/17 12:49:04;;;;;;;;;;;18.50;99.90;;;;;;5089393;28;20029;-83
2023/10/17 12:51:29;;;;;;;;;;;18.60;99.90;;;;;;5090854;28;20011;-84
2023/10/17 12:53:55;;;;;;;;;;;18.60;99.90;;;;;;5089280;28;19913;-83
2023/10/17 12:56:20;;;;;;;;;;;18.70;99.90;;;;;;5090416;28;19912;-83
2023/10/17 12:58:46;;;;;;;;;;;18.70;99.90;;;;;;5090102;28;19935;-83
2023/10/17 13:01:12;;;;;;;;;;;18.70;99.90;;;;;;5110531;27;19908;-82
2023/10/17 13:03:38;;;;;;;;;;;18.70;99.90;;;;;;5090359;28;20470;-83
2023/10/17 13:06:07;;;;;;;;;;;18.70;99.90;;;;;;5088885;28;20295;-88
2023/10/17 13:08:33;;;;;;;;;;;18.70;99.90;;;;;;5090938;28;19955;-84
2023/10/17 13:10:59;;;;;;;;;;;18.70;99.90;;;;;;5088763;28;19962;-84
2023/10/17 13:13:25;;;;;;;;;;;18.70;99.90;;;;;;5090374;28;19920;-85
2023/10/17 13:15:52;;;;;;;;;;;18.80;99.90;;;;;;5088905;28;19915;-84
2023/10/17 13:18:19;;;;;;;;;;;18.80;99.90;;;;;;5084378;28;20284;-87
2023/10/17 13:20:50;;;;;;;;;;;18.80;99.90;;;;;;5089047;28;19951;-84
2023/10/17 13:23:16;;;;;;;;;;;18.80;99.90;;;;;;5090767;28;19912;-86
2023/10/17 13:25:43;;;;;;;;;;;18.80;99.90;;;;;;5090753;28;19915;-86
2023/10/17 13:28:09;;;;;;;;;;;18.90;99.90;;;;;;5096439;28;19911;-85
2023/10/17 13:30:35;;;;;;;;;;;18.90;99.90;;;;;;5089952;28;20448;-86
2023/10/17 13:33:00;;;;;;;;;;;19.00;99.90;;;;;;5070046;28;20026;-88
2023/10/17 13:35:27;;;;;;;;;;;19.00;99.90;;;;;;5070230;28;19908;-85
2023/10/17 13:37:53;;;;;;;;;;;19.00;99.90;;;;;;5069682;28;19912;-86
2023/10/17 13:40:19;;;;;;;;;;;19.10;99.90;;;;;;5090011;28;19919;-82
2023/10/17 13:42:50;;;;;;;;;;;19.10;99.90;;;;;;5090136;28;19908;-84
2023/10/17 13:45:21;;;;;;;;;;;19.10;99.90;;;;;;5089627;28;19999;-85
2023/10/17 13:47:48;;;;;;;;;;;19.10;99.90;;;;;;5082675;28;19916;-84
2023/10/17 13:50:15;;;;;;;;;;;19.20;99.90;;;;;;5107189;27;20018;-83
2023/10/17 13:52:41;;;;;;;;;;;19.20;99.90;;;;;;5076223;28;20018;-83
2023/10/17 13:55:11;;;;;;;;;;;19.20;99.90;;;;;;5089069;28;19966;-83
2023/10/17 13:57:38;;;;;;;;;;;19.30;99.90;;;;;;5090670;28;19908;-82
2023/10/17 14:00:05;;;;;;;;;;;19.20;99.90;;;;;;5089494;28;20003;-83
2023/10/17 14:02:32;;;;;;;;;;;19.30;99.90;;;;;;5089516;28;20116;-84
2023/10/17 14:04:57;;;;;;;;;;;19.30;99.90;;;;;;5088922;28;19912;-84
2023/10/17 14:07:23;;;;;;;;;;;19.30;99.90;;;;;;5121394;27;19913;-83
2023/10/17 14:09:54;;;;;;;;;;;19.40;99.90;;;;;;5088584;28;20441;-85
2023/10/17 14:12:19;;;;;;;;;;;19.30;99.90;;;;;;5089454;28;19965;-82
2023/10/17 14:14:45;;;;;;;;;;;19.40;99.90;;;;;;5089156;28;19908;-82
2023/10/17 14:17:10;;;;;;;;;;;19.40;99.90;;;;;;5089850;28;20298;-84
2023/10/17 14:22:10;;;;;;;;;;;19.40;99.90;;;;;;5093970;28;19955;-84
2023/10/17 14:27:21;;;;;;;;;;;19.50;99.90;;;;;;5089645;28;19912;-83
2023/10/17 14:29:47;;;;;;;;;;;19.50;99.90;;;;;;5097813;28;19908;-83
2023/10/17 14:32:23;;;;;;;;;;;19.50;99.90;;;;;;5108253;28;19969;-81
2023/10/17 14:34:49;;;;;;;;;;;19.50;99.90;;;;;;5092896;28;20003;-82
2023/10/17 14:37:15;;;;;;;;;;;19.50;99.90;;;;;;5088552;28;20366;-83
2023/10/17 14:39:41;;;;;;;;;;;19.40;99.90;;;;;;5088487;28;20298;-83
2023/10/17 14:42:10;;;;;;;;;;;19.60;99.90;;;;;;5088663;28;19961;-84
2023/10/17 14:44:39;;;;;;;;;;;19.60;99.90;;;;;;5093176;28;20303;-85
2023/10/17 14:47:06;;;;;;;;;;;19.60;99.90;;;;;;5088565;28;19963;-84
2023/10/17 14:49:31;;;;;;;;;;;19.60;99.90;;;;;;5091125;28;19939;-85
2023/10/17 14:51:57;;;;;;;;;;;19.60;99.90;;;;;;5093958;28;20284;-84
2023/10/17 14:54:23;;;;;;;;;;;19.60;99.90;;;;;;5094009;28;19916;-83
2023/10/17 14:56:50;;;;;;;;;;;19.60;99.90;;;;;;5092095;28;19908;-85
2023/10/17 14:59:16;;;;;;;;;;;19.50;99.90;;;;;;5088874;28;19918;-85
2023/10/17 15:01:43;;;;;;;;;;;19.60;99.90;;;;;;5117062;27;19916;-83
2023/10/17 15:04:09;;;;;;;;;;;19.50;99.90;;;;;;5092464;28;19912;-85
2023/10/17 15:06:36;;;;;;;;;;;19.60;99.90;;;;;;5092378;28;20010;-84
2023/10/17 15:09:05;;;;;;;;;;;19.60;99.90;;;;;;5092550;28;20369;-85
2023/10/17 15:11:32;;;;;;;;;;;19.60;99.90;;;;;;5092615;28;20301;-83
2023/10/17 15:13:59;;;;;;;;;;;19.60;99.90;;;;;;5089897;28;19919;-84
2023/10/17 15:16:25;;;;;;;;;;;19.50;99.90;;;;;;5091395;28;20279;-83
2023/10/17 15:18:53;;;;;;;;;;;19.50;99.90;;;;;;5092049;28;19908;-85
2023/10/17 15:21:19;;;;;;;;;;;19.50;99.90;;;;;;5090803;28;20342;-83
2023/10/17 15:23:45;;;;;;;;;;;19.50;99.90;;;;;;5091062;28;19908;-84
2023/10/17 15:26:11;;;;;;;;;;;19.50;99.90;;;;;;5076727;28;19913;-83
2023/10/17 15:28:36;;;;;;;;;;;19.40;99.90;;;;;;5084672;28;19915;-84
2023/10/17 15:31:09;;;;;;;;;;;19.40;99.90;;;;;;5082136;28;20269;-83
2023/10/17 15:33:35;;;;;;;;;;;19.30;99.90;;;;;;5089626;28;19927;-82
2023/10/17 15:36:02;;;;;;;;;;;19.30;99.90;;;;;;5091909;28;20191;-84
2023/10/17 15:38:30;;;;;;;;;;;19.30;99.90;;;;;;5089696;28;19913;-82
2023/10/17 15:40:57;;;;;;;;;;;19.20;99.90;;;;;;5090307;28;19908;-83
2023/10/17 15:43:22;;;;;;;;;;;19.10;99.90;;;;;;5092007;28;20290;-82
2023/10/17 15:45:50;;;;;;;;;;;19.10;99.90;;;;;;5091744;28;20465;-82
2023/10/17 15:48:16;;;;;;;;;;;19.00;99.90;;;;;;5077126;28;19936;-83
2023/10/17 15:50:41;;;;;;;;;;;19.00;99.90;;;;;;5058469;28;19913;-83
2023/10/17 15:53:09;;;;;;;;;;;19.00;99.90;;;;;;5065896;28;19926;-82
2023/10/17 15:55:36;;;;;;;;;;;18.90;99.90;;;;;;5069396;28;19920;-82
2023/10/17 15:58:02;;;;;;;;;;;18.80;99.90;;;;;;5074146;28;19920;-82
2023/10/17 16:00:28;;;;;;;;;;;18.80;99.90;;;;;;5074377;28;19909;-82
2023/10/17 16:02:54;;;;;;;;;;;18.80;99.90;;;;;;5075205;28;20000;-82
2023/10/17 16:05:20;;;;;;;;;;;18.80;99.90;;;;;;5054398;28;20094;-83
2023/10/17 16:07:46;;;;;;;;;;;18.80;99.90;;;;;;5070328;28;19912;-83
2023/10/17 16:10:16;;;;;;;;;;;18.80;99.90;;;;;;5071153;28;19908;-82
2023/10/17 16:12:42;;;;;;;;;;;18.80;99.90;;;;;;5071055;28;19917;-83
2023/10/17 16:15:08;;;;;;;;;;;18.70;99.90;;;;;;5054624;28;19912;-85
2023/10/17 16:17:38;;;;;;;;;;;18.80;99.90;;;;;;5063572;28;20269;-81
2023/10/17 16:20:14;;;;;;;;;;;18.70;99.90;;;;;;5070939;28;19919;-82
2023/10/17 16:22:39;;;;;;;;;;;18.70;99.90;;;;;;5053226;28;19908;-82
2023/10/17 16:25:06;;;;;;;;;;;18.70;99.90;;;;;;5069915;28;19954;-83
2023/10/17 16:27:35;;;;;;;;;;;18.70;99.90;;;;;;5070948;28;19912;-82